createdAt,value
2019-01-23T00:00:34.228Z,35.53
2019-01-23T00:01:34.186Z,35.53
2019-01-23T00:02:34.174Z,35.53
2019-01-23T00:03:34.192Z,35.53
2019-01-23T00:04:34.156Z,35.53
2019-01-23T00:05:34.346Z,35.53
2019-01-23T00:06:34.130Z,35.53
2019-01-23T00:07:34.120Z,35.63
2019-01-23T00:08:34.134Z,35.53
2019-01-23T00:09:34.097Z,35.53
2019-01-23T00:10:34.089Z,35.63
2019-01-23T00:11:34.077Z,35.63
2019-01-23T00:12:34.064Z,35.63
2019-01-23T00:13:34.082Z,35.63
2019-01-23T00:14:34.046Z,35.63
2019-01-23T00:15:34.034Z,35.63
2019-01-23T00:16:34.032Z,35.63
2019-01-23T00:17:34.011Z,35.63
2019-01-23T00:18:34.030Z,35.63
2019-01-23T00:19:33.990Z,35.63
2019-01-23T00:20:33.979Z,35.63
2019-01-23T00:21:33.967Z,35.63
2019-01-23T00:22:33.958Z,35.63
2019-01-23T00:23:33.948Z,35.63
2019-01-23T00:24:34.161Z,35.63
2019-01-23T00:25:33.927Z,35.63
2019-01-23T00:26:33.915Z,35.63
2019-01-23T00:27:33.905Z,35.63
2019-01-23T00:28:33.893Z,35.73
2019-01-23T00:29:33.882Z,35.73
2019-01-23T00:30:34.101Z,35.63
2019-01-23T00:31:33.862Z,35.73
2019-01-23T00:32:33.852Z,35.73
2019-01-23T00:33:33.844Z,35.73
2019-01-23T00:34:33.835Z,35.73
2019-01-23T00:35:33.821Z,35.73
2019-01-23T00:36:33.839Z,35.63
2019-01-23T00:37:33.799Z,35.63
2019-01-23T00:38:33.790Z,35.73
2019-01-23T00:39:33.779Z,35.73
2019-01-23T00:40:33.768Z,35.73
2019-01-23T00:41:33.756Z,35.73
2019-01-23T00:42:33.774Z,35.73
2019-01-23T00:43:33.760Z,35.73
2019-01-23T00:44:33.724Z,35.73
2019-01-23T00:45:33.715Z,35.73
2019-01-23T00:46:33.706Z,35.73
2019-01-23T00:47:33.695Z,35.73
2019-01-23T00:48:33.720Z,35.73
2019-01-23T00:49:33.669Z,35.73
2019-01-23T00:50:33.658Z,35.73
2019-01-23T00:51:33.648Z,35.83
2019-01-23T00:52:33.637Z,35.83
2019-01-23T00:53:33.625Z,35.73
2019-01-23T00:54:33.644Z,35.73
2019-01-23T00:55:33.605Z,35.73
2019-01-23T00:56:33.593Z,35.73
2019-01-23T00:57:33.586Z,35.73
2019-01-23T00:58:33.574Z,35.73
2019-01-23T00:59:33.561Z,35.73
2019-01-23T01:00:33.582Z,35.73
2019-01-23T01:01:33.560Z,35.73
2019-01-23T01:02:33.529Z,35.73
2019-01-23T01:03:33.546Z,35.73
2019-01-23T01:04:33.508Z,35.83
2019-01-23T01:05:33.497Z,35.83
2019-01-23T01:06:33.487Z,35.83
2019-01-23T01:07:33.475Z,35.73
2019-01-23T01:08:33.464Z,35.73
2019-01-23T01:09:33.481Z,35.73
2019-01-23T01:10:33.443Z,35.73
2019-01-23T01:11:33.431Z,35.73
2019-01-23T01:12:33.421Z,35.83
2019-01-23T01:13:33.411Z,35.73
2019-01-23T01:14:33.399Z,35.71
2019-01-23T01:15:33.674Z,35.71
2019-01-23T01:16:33.376Z,35.71
2019-01-23T01:17:33.366Z,35.71
2019-01-23T01:18:33.355Z,35.71
2019-01-23T01:19:33.347Z,35.71
2019-01-23T01:20:33.336Z,35.71
2019-01-23T01:21:33.351Z,35.71
2019-01-23T01:22:33.314Z,35.71
2019-01-23T01:23:33.303Z,35.71
2019-01-23T01:24:33.319Z,35.71
2019-01-23T01:25:33.282Z,35.61
2019-01-23T01:26:33.271Z,35.61
2019-01-23T01:27:33.260Z,35.61
2019-01-23T01:28:33.249Z,35.61
2019-01-23T01:29:33.240Z,35.61
2019-01-23T01:30:33.253Z,35.61
2019-01-23T01:31:33.216Z,35.61
2019-01-23T01:32:33.205Z,35.61
2019-01-23T01:33:34.091Z,35.51
2019-01-23T01:34:33.361Z,35.51
2019-01-23T01:35:33.173Z,35.51
2019-01-23T01:36:33.160Z,35.51
2019-01-23T01:37:33.150Z,35.51
2019-01-23T01:38:33.140Z,35.51
2019-01-23T01:39:33.128Z,35.51
2019-01-23T01:40:33.149Z,35.50
2019-01-23T01:41:33.113Z,35.51
2019-01-23T01:42:33.104Z,35.51
2019-01-23T01:43:33.086Z,35.51
2019-01-23T01:44:33.077Z,35.51
2019-01-23T01:45:33.061Z,35.51
2019-01-23T01:46:33.078Z,35.51
2019-01-23T01:47:33.050Z,35.39
2019-01-23T01:48:33.035Z,35.41
2019-01-23T01:49:33.019Z,35.41
2019-01-23T01:50:33.302Z,35.41
2019-01-23T01:51:32.999Z,35.41
2019-01-23T01:52:32.993Z,35.41
2019-01-23T01:53:32.974Z,35.41
2019-01-23T01:54:32.964Z,35.41
2019-01-23T01:55:32.955Z,35.51
2019-01-23T01:56:32.973Z,35.41
2019-01-23T01:57:32.934Z,35.51
2019-01-23T01:58:32.924Z,35.41
2019-01-23T01:59:32.911Z,35.51
2019-01-23T02:00:32.926Z,35.41
2019-01-23T02:01:32.889Z,35.41
2019-01-23T02:02:32.876Z,35.41
2019-01-23T02:03:32.867Z,35.41
2019-01-23T02:04:32.883Z,35.41
2019-01-23T02:05:32.849Z,35.41
2019-01-23T02:06:32.835Z,35.51
2019-01-23T02:07:32.822Z,35.51
2019-01-23T02:08:32.817Z,35.51
2019-01-23T02:09:35.557Z,35.51
2019-01-23T02:10:32.855Z,35.41
2019-01-23T02:11:32.780Z,35.51
2019-01-23T02:12:32.770Z,35.51
2019-01-23T02:13:32.764Z,35.51
2019-01-23T02:14:32.775Z,35.51
2019-01-23T02:15:32.741Z,35.51
2019-01-23T02:16:32.754Z,35.51
2019-01-23T02:17:32.714Z,35.51
2019-01-23T02:18:32.706Z,35.51
2019-01-23T02:19:32.691Z,35.51
2019-01-23T02:20:32.681Z,35.51
2019-01-23T02:21:32.721Z,35.51
2019-01-23T02:22:32.664Z,35.51
2019-01-23T02:23:32.650Z,35.61
2019-01-23T02:24:32.640Z,35.61
2019-01-23T02:25:32.632Z,35.51
2019-01-23T02:26:32.618Z,35.51
2019-01-23T02:27:32.639Z,35.51
2019-01-23T02:28:32.599Z,35.51
2019-01-23T02:29:32.587Z,35.61
2019-01-23T02:30:32.577Z,35.71
2019-01-23T02:31:32.567Z,35.71
2019-01-23T02:32:32.578Z,35.61
2019-01-23T02:33:32.545Z,35.61
2019-01-23T02:34:32.535Z,35.61
2019-01-23T02:35:32.523Z,35.61
2019-01-23T02:36:32.512Z,35.61
2019-01-23T02:37:32.530Z,35.71
2019-01-23T02:38:32.486Z,35.71
2019-01-23T02:39:32.484Z,35.71
2019-01-23T02:40:32.465Z,35.71
2019-01-23T02:41:32.453Z,35.71
2019-01-23T02:42:32.475Z,35.71
2019-01-23T02:43:32.433Z,35.71
2019-01-23T02:44:32.426Z,35.71
2019-01-23T02:45:32.414Z,35.71
2019-01-23T02:46:32.406Z,35.71
2019-01-23T02:47:32.398Z,35.61
2019-01-23T02:48:32.404Z,35.61
2019-01-23T02:49:32.369Z,35.61
2019-01-23T02:50:32.361Z,35.71
2019-01-23T02:51:32.349Z,35.71
2019-01-23T02:52:32.358Z,35.82
2019-01-23T02:53:32.326Z,35.82
2019-01-23T02:54:32.314Z,35.71
2019-01-23T02:55:32.311Z,35.71
2019-01-23T02:56:32.290Z,35.71
2019-01-23T02:57:32.281Z,35.71
2019-01-23T02:58:32.294Z,35.71
2019-01-23T02:59:32.260Z,35.71
2019-01-23T03:00:32.245Z,35.71
2019-01-23T03:01:32.234Z,35.71
2019-01-23T03:02:32.255Z,35.71
2019-01-23T03:03:32.210Z,35.71
2019-01-23T03:04:32.203Z,35.71
2019-01-23T03:05:32.194Z,35.71
2019-01-23T03:06:32.178Z,35.82
2019-01-23T03:07:32.195Z,35.82
2019-01-23T03:08:32.164Z,35.71
2019-01-23T03:09:32.143Z,35.71
2019-01-23T03:10:32.139Z,35.71
2019-01-23T03:11:32.151Z,35.82
2019-01-23T03:12:32.115Z,35.82
2019-01-23T03:13:32.135Z,35.82
2019-01-23T03:14:32.092Z,35.71
2019-01-23T03:15:32.085Z,35.71
2019-01-23T03:16:32.074Z,35.71
2019-01-23T03:17:32.058Z,35.71
2019-01-23T03:18:32.046Z,35.82
2019-01-23T03:19:32.333Z,35.82
2019-01-23T03:20:32.026Z,35.71
2019-01-23T03:21:32.014Z,35.71
2019-01-23T03:22:32.007Z,35.71
2019-01-23T03:23:31.991Z,35.82
2019-01-23T03:24:31.986Z,35.71
2019-01-23T03:25:32.005Z,35.82
2019-01-23T03:26:31.961Z,35.82
2019-01-23T03:27:31.953Z,35.82
2019-01-23T03:28:31.942Z,35.82
2019-01-23T03:29:31.924Z,35.82
2019-01-23T03:30:31.914Z,35.82
2019-01-23T03:31:32.131Z,35.82
2019-01-23T03:32:31.896Z,35.82
2019-01-23T03:33:31.888Z,35.71
2019-01-23T03:34:31.871Z,35.82
2019-01-23T03:35:31.864Z,35.82
2019-01-23T03:36:31.858Z,35.82
2019-01-23T03:37:31.874Z,35.82
2019-01-23T03:38:31.835Z,35.82
2019-01-23T03:39:31.823Z,35.82
2019-01-23T03:40:31.835Z,35.82
2019-01-23T03:41:31.798Z,35.82
2019-01-23T03:42:31.785Z,35.91
2019-01-23T03:43:31.775Z,35.91
2019-01-23T03:44:31.770Z,35.82
2019-01-23T03:45:31.782Z,35.82
2019-01-23T03:46:31.742Z,35.82
2019-01-23T03:47:31.762Z,35.82
2019-01-23T03:48:31.721Z,35.82
2019-01-23T03:49:31.707Z,35.82
2019-01-23T03:50:31.702Z,35.82
2019-01-23T03:51:31.688Z,35.82
2019-01-23T03:52:31.715Z,35.82
2019-01-23T03:53:31.665Z,35.82
2019-01-23T03:54:31.660Z,35.82
2019-01-23T03:55:31.643Z,35.71
2019-01-23T03:56:31.630Z,35.71
2019-01-23T03:57:31.618Z,35.71
2019-01-23T03:58:31.644Z,35.82
2019-01-23T03:59:32.320Z,35.91
2019-01-23T04:00:31.618Z,35.91
2019-01-23T04:01:31.579Z,35.91
2019-01-23T04:02:31.566Z,35.82
2019-01-23T04:03:31.557Z,35.71
2019-01-23T04:04:31.541Z,35.82
2019-01-23T04:05:31.539Z,35.91
2019-01-23T04:06:31.562Z,35.91
2019-01-23T04:07:31.513Z,35.91
2019-01-23T04:08:31.504Z,35.82
2019-01-23T04:09:31.489Z,35.82
2019-01-23T04:10:31.491Z,35.71
2019-01-23T04:11:31.698Z,35.71
2019-01-23T04:12:31.460Z,35.82
2019-01-23T04:13:31.451Z,35.82
2019-01-23T04:14:31.433Z,35.82
2019-01-23T04:15:31.430Z,35.82
2019-01-23T04:16:31.412Z,35.82
2019-01-23T04:17:31.434Z,35.82
2019-01-23T04:18:31.425Z,35.82
2019-01-23T04:19:31.381Z,35.82
2019-01-23T04:20:31.371Z,35.82
2019-01-23T04:21:31.359Z,35.82
2019-01-23T04:22:31.555Z,35.91
2019-01-23T04:23:31.339Z,35.82
2019-01-23T04:24:31.354Z,35.82
2019-01-23T04:25:31.313Z,35.82
2019-01-23T04:26:31.300Z,35.82
2019-01-23T04:27:31.300Z,35.82
2019-01-23T04:28:31.278Z,35.82
2019-01-23T04:29:31.299Z,35.82
2019-01-23T04:30:31.297Z,35.82
2019-01-23T04:31:31.247Z,35.82
2019-01-23T04:32:31.235Z,35.83
2019-01-23T04:33:31.226Z,35.91
2019-01-23T04:34:31.213Z,35.93
2019-01-23T04:35:31.208Z,35.91
2019-01-23T04:36:31.224Z,35.83
2019-01-23T04:37:31.180Z,35.71
2019-01-23T04:38:31.169Z,35.71
2019-01-23T04:39:31.163Z,35.71
2019-01-23T04:40:31.145Z,35.82
2019-01-23T04:41:31.366Z,35.82
2019-01-23T04:42:31.125Z,35.91
2019-01-23T04:43:31.143Z,35.91
2019-01-23T04:44:31.103Z,35.91
2019-01-23T04:45:31.090Z,35.83
2019-01-23T04:46:31.086Z,35.73
2019-01-23T04:47:31.296Z,35.73
2019-01-23T04:48:31.060Z,35.83
2019-01-23T04:49:31.055Z,35.83
2019-01-23T04:50:31.048Z,35.83
2019-01-23T04:51:31.031Z,35.83
2019-01-23T04:52:31.017Z,35.83
2019-01-23T04:53:31.035Z,35.83
2019-01-23T04:54:30.998Z,35.83
2019-01-23T04:55:30.988Z,35.83
2019-01-23T04:56:30.976Z,35.83
2019-01-23T04:57:30.962Z,35.83
2019-01-23T04:58:30.957Z,35.93
2019-01-23T04:59:30.974Z,35.93
2019-01-23T05:00:30.932Z,36.03
2019-01-23T05:01:30.921Z,35.93
2019-01-23T05:02:30.913Z,35.93
2019-01-23T05:03:30.905Z,35.83
2019-01-23T05:04:30.916Z,35.83
2019-01-23T05:05:30.877Z,35.83
2019-01-23T05:06:30.870Z,35.83
2019-01-23T05:07:30.855Z,35.93
2019-01-23T05:08:30.839Z,35.93
2019-01-23T05:09:30.837Z,35.93
2019-01-23T05:10:31.054Z,35.93
2019-01-23T05:11:30.813Z,35.93
2019-01-23T05:12:30.800Z,35.93
2019-01-23T05:13:30.793Z,35.93
2019-01-23T05:14:30.776Z,35.93
2019-01-23T05:15:30.769Z,35.93
2019-01-23T05:16:30.793Z,35.83
2019-01-23T05:17:30.744Z,35.83
2019-01-23T05:18:30.748Z,35.83
2019-01-23T05:19:30.727Z,35.83
2019-01-23T05:20:30.714Z,35.93
2019-01-23T05:21:30.704Z,35.93
2019-01-23T05:22:30.730Z,35.82
2019-01-23T05:23:30.691Z,35.93
2019-01-23T05:24:30.668Z,35.93
2019-01-23T05:25:30.676Z,35.91
2019-01-23T05:26:30.651Z,35.91
2019-01-23T05:27:30.638Z,35.91
2019-01-23T05:28:30.663Z,35.83
2019-01-23T05:29:30.613Z,35.83
2019-01-23T05:30:30.605Z,35.83
2019-01-23T05:31:30.592Z,35.82
2019-01-23T05:32:30.580Z,35.82
2019-01-23T05:33:30.571Z,35.82
2019-01-23T05:34:30.594Z,35.91
2019-01-23T05:35:30.549Z,35.91
2019-01-23T05:36:30.540Z,35.91
2019-01-23T05:37:30.530Z,35.91
2019-01-23T05:38:30.513Z,35.91
2019-01-23T05:39:30.537Z,36.02
2019-01-23T05:40:30.496Z,36.02
2019-01-23T05:41:30.515Z,35.91
2019-01-23T05:42:30.472Z,35.82
2019-01-23T05:43:30.458Z,35.82
2019-01-23T05:44:30.447Z,35.91
2019-01-23T05:45:30.442Z,35.91
2019-01-23T05:46:30.428Z,35.91
2019-01-23T05:47:30.702Z,35.91
2019-01-23T05:48:30.405Z,35.91
2019-01-23T05:49:30.392Z,35.91
2019-01-23T05:50:30.389Z,35.91
2019-01-23T05:51:30.378Z,35.82
2019-01-23T05:52:30.360Z,35.82
2019-01-23T05:53:30.380Z,35.82
2019-01-23T05:54:30.342Z,35.82
2019-01-23T05:55:30.331Z,35.82
2019-01-23T05:56:30.319Z,35.82
2019-01-23T05:57:30.315Z,35.71
2019-01-23T05:58:30.297Z,35.71
2019-01-23T05:59:30.316Z,35.82
2019-01-23T06:00:30.278Z,35.82
2019-01-23T06:01:30.262Z,35.82
2019-01-23T06:02:30.258Z,35.82
2019-01-23T06:03:30.240Z,35.82
2019-01-23T06:04:30.234Z,35.82
2019-01-23T06:05:30.251Z,35.82
2019-01-23T06:06:30.209Z,35.71
2019-01-23T06:07:30.205Z,35.82
2019-01-23T06:08:30.192Z,35.82
2019-01-23T06:09:30.179Z,35.82
2019-01-23T06:10:30.168Z,35.82
2019-01-23T06:11:30.183Z,35.82
2019-01-23T06:12:30.147Z,35.71
2019-01-23T06:13:30.134Z,35.71
2019-01-23T06:14:30.127Z,35.71
2019-01-23T06:15:30.109Z,35.71
2019-01-23T06:16:30.133Z,35.71
2019-01-23T06:17:30.121Z,35.82
2019-01-23T06:18:30.084Z,35.82
2019-01-23T06:19:30.067Z,35.82
2019-01-23T06:20:30.055Z,35.82
2019-01-23T06:21:30.050Z,35.71
2019-01-23T06:22:30.040Z,35.71
2019-01-23T06:23:30.053Z,35.82
2019-01-23T06:24:30.019Z,35.82
2019-01-23T06:25:30.010Z,35.91
2019-01-23T06:26:29.998Z,35.91
2019-01-23T06:27:30.015Z,35.91
2019-01-23T06:28:29.973Z,35.91
2019-01-23T06:29:29.960Z,35.91
2019-01-23T06:30:29.952Z,35.91
2019-01-23T06:31:29.940Z,35.91
2019-01-23T06:32:29.928Z,35.82
2019-01-23T06:33:29.953Z,35.82
2019-01-23T06:34:29.909Z,35.82
2019-01-23T06:35:29.899Z,35.82
2019-01-23T06:36:29.890Z,35.91
2019-01-23T06:37:29.877Z,35.91
2019-01-23T06:38:29.899Z,35.91
2019-01-23T06:39:29.854Z,35.91
2019-01-23T06:40:29.845Z,35.91
2019-01-23T06:41:29.834Z,35.91
2019-01-23T06:42:29.816Z,35.82
2019-01-23T06:43:29.809Z,35.82
2019-01-23T06:44:29.829Z,35.82
2019-01-23T06:45:29.786Z,35.82
2019-01-23T06:46:29.772Z,35.91
2019-01-23T06:47:29.764Z,35.82
2019-01-23T06:48:29.760Z,35.82
2019-01-23T06:49:29.747Z,35.91
2019-01-23T06:50:29.765Z,35.91
2019-01-23T06:51:29.720Z,35.91
2019-01-23T06:52:29.713Z,36.02
2019-01-23T06:53:29.697Z,36.02
2019-01-23T06:54:29.720Z,36.11
2019-01-23T06:55:29.674Z,36.02
2019-01-23T06:56:29.669Z,35.91
2019-01-23T06:57:29.653Z,35.91
2019-01-23T06:58:29.641Z,35.91
2019-01-23T06:59:29.631Z,35.82
2019-01-23T07:00:29.689Z,35.82
2019-01-23T07:01:29.615Z,35.91
2019-01-23T07:02:29.603Z,36.02
2019-01-23T07:03:29.590Z,36.02
2019-01-23T07:04:29.579Z,36.02
2019-01-23T07:05:29.569Z,36.02
2019-01-23T07:06:29.587Z,36.02
2019-01-23T07:07:29.545Z,36.02
2019-01-23T07:08:29.537Z,35.91
2019-01-23T07:09:29.525Z,35.91
2019-01-23T07:10:29.513Z,35.91
2019-01-23T07:11:29.506Z,35.91
2019-01-23T07:12:29.525Z,35.91
2019-01-23T07:13:29.515Z,35.91
2019-01-23T07:14:29.466Z,35.91
2019-01-23T07:15:29.458Z,35.91
2019-01-23T07:16:29.449Z,35.91
2019-01-23T07:17:29.435Z,35.91
2019-01-23T07:18:29.425Z,35.91
2019-01-23T07:19:29.638Z,35.82
2019-01-23T07:20:29.401Z,35.91
2019-01-23T07:21:29.394Z,35.91
2019-01-23T07:22:29.384Z,35.91
2019-01-23T07:23:29.375Z,35.91
2019-01-23T07:24:29.362Z,35.82
2019-01-23T07:25:29.573Z,35.82
2019-01-23T07:26:29.337Z,35.82
2019-01-23T07:27:29.329Z,35.82
2019-01-23T07:28:29.313Z,35.91
2019-01-23T07:29:29.308Z,35.91
2019-01-23T07:30:29.290Z,35.82
2019-01-23T07:31:29.317Z,35.82
2019-01-23T07:32:29.275Z,35.82
2019-01-23T07:33:29.296Z,35.91
2019-01-23T07:34:29.252Z,35.91
2019-01-23T07:35:29.237Z,35.91
2019-01-23T07:36:29.224Z,35.82
2019-01-23T07:37:29.218Z,35.82
2019-01-23T07:38:29.203Z,35.82
2019-01-23T07:39:29.370Z,35.82
2019-01-23T07:40:29.186Z,35.82
2019-01-23T07:41:29.177Z,35.82
2019-01-23T07:42:29.165Z,35.82
2019-01-23T07:43:29.185Z,35.91
2019-01-23T07:44:29.141Z,35.91
2019-01-23T07:45:29.165Z,35.91
2019-01-23T07:46:29.120Z,35.82
2019-01-23T07:47:29.110Z,35.71
2019-01-23T07:48:29.105Z,35.71
2019-01-23T07:49:29.084Z,35.82
2019-01-23T07:50:29.078Z,35.91
2019-01-23T07:51:29.092Z,35.91
2019-01-23T07:52:29.091Z,35.82
2019-01-23T07:53:29.045Z,35.82
2019-01-23T07:54:29.030Z,35.71
2019-01-23T07:55:29.022Z,35.71
2019-01-23T07:56:29.011Z,35.82
2019-01-23T07:57:29.005Z,35.82
2019-01-23T07:58:29.020Z,35.82
2019-01-23T07:59:28.981Z,35.82
2019-01-23T08:00:31.583Z,35.82
2019-01-23T08:01:28.959Z,35.71
2019-01-23T08:02:28.946Z,35.82
2019-01-23T08:03:28.933Z,35.82
2019-01-23T08:04:28.956Z,35.82
2019-01-23T08:05:28.909Z,35.71
2019-01-23T08:06:28.903Z,35.71
2019-01-23T08:07:28.887Z,35.71
2019-01-23T08:08:28.883Z,35.71
2019-01-23T08:09:28.909Z,35.71
2019-01-23T08:10:28.860Z,35.82
2019-01-23T08:11:28.851Z,35.82
2019-01-23T08:12:28.837Z,35.71
2019-01-23T08:13:28.825Z,35.82
2019-01-23T08:14:28.818Z,35.82
2019-01-23T08:15:28.887Z,35.82
2019-01-23T08:16:28.794Z,35.71
2019-01-23T08:17:32.695Z,35.82
2019-01-23T08:18:28.766Z,35.82
2019-01-23T08:19:28.759Z,35.82
2019-01-23T08:20:28.763Z,35.82
2019-01-23T08:21:28.885Z,35.82
2019-01-23T08:22:28.723Z,35.71
2019-01-23T08:23:28.715Z,35.71
2019-01-23T08:24:28.707Z,35.51
2019-01-23T08:25:28.699Z,35.51
2019-01-23T08:26:28.688Z,35.51
2019-01-23T08:27:28.710Z,35.31
2019-01-23T08:28:28.664Z,35.11
2019-01-23T08:29:28.654Z,35.11
2019-01-23T08:30:28.640Z,35.01
2019-01-23T08:31:28.634Z,35.01
2019-01-23T08:32:28.616Z,35.01
2019-01-23T08:33:28.644Z,34.81
2019-01-23T08:34:28.598Z,34.91
2019-01-23T08:35:28.589Z,34.81
2019-01-23T08:36:28.576Z,34.81
2019-01-23T08:37:28.566Z,34.81
2019-01-23T08:38:28.561Z,34.81
2019-01-23T08:39:28.580Z,34.69
2019-01-23T08:40:28.539Z,34.69
2019-01-23T08:41:28.522Z,34.69
2019-01-23T08:42:28.512Z,34.69
2019-01-23T08:43:28.497Z,34.67
2019-01-23T08:44:28.486Z,34.67
2019-01-23T08:45:28.504Z,34.67
2019-01-23T08:46:28.466Z,34.66
2019-01-23T08:47:28.454Z,34.66
2019-01-23T08:48:28.449Z,34.76
2019-01-23T08:49:28.432Z,34.74
2019-01-23T08:50:28.452Z,34.64
2019-01-23T08:51:28.412Z,34.64
2019-01-23T08:52:28.402Z,34.74
2019-01-23T08:53:28.397Z,34.64
2019-01-23T08:54:28.380Z,34.64
2019-01-23T08:55:28.369Z,34.63
2019-01-23T08:56:28.386Z,34.73
2019-01-23T08:57:28.348Z,34.63
2019-01-23T08:58:28.333Z,34.63
2019-01-23T08:59:28.325Z,34.73
2019-01-23T09:00:28.315Z,34.73
2019-01-23T09:01:28.333Z,34.73
2019-01-23T09:02:28.294Z,34.73
2019-01-23T09:03:28.280Z,34.73
2019-01-23T09:04:28.267Z,34.73
2019-01-23T09:05:28.255Z,34.83
2019-01-23T09:06:28.276Z,34.83
2019-01-23T09:07:28.235Z,34.93
2019-01-23T09:08:28.223Z,34.93
2019-01-23T09:09:28.212Z,34.93
2019-01-23T09:10:28.202Z,34.83
2019-01-23T09:11:28.229Z,34.73
2019-01-23T09:12:28.180Z,34.73
2019-01-23T09:13:28.175Z,34.73
2019-01-23T09:14:28.159Z,34.63
2019-01-23T09:15:28.147Z,34.63
2019-01-23T09:16:28.138Z,34.63
2019-01-23T09:17:28.355Z,34.53
2019-01-23T09:18:28.127Z,34.53
2019-01-23T09:19:28.108Z,34.53
2019-01-23T09:20:28.093Z,34.53
2019-01-23T09:21:28.083Z,34.53
2019-01-23T09:22:28.069Z,34.53
2019-01-23T09:23:28.091Z,34.53
2019-01-23T09:24:28.053Z,34.53
2019-01-23T09:25:28.069Z,34.53
2019-01-23T09:26:28.029Z,34.43
2019-01-23T09:27:28.020Z,34.43
2019-01-23T09:28:28.011Z,34.43
2019-01-23T09:29:27.997Z,34.53
2019-01-23T09:30:27.985Z,34.53
2019-01-23T09:31:28.007Z,34.53
2019-01-23T09:32:27.964Z,34.53
2019-01-23T09:33:27.955Z,34.43
2019-01-23T09:34:27.942Z,34.43
2019-01-23T09:35:27.930Z,34.44
2019-01-23T09:36:27.929Z,34.44
2019-01-23T09:37:27.941Z,34.44
2019-01-23T09:38:27.901Z,34.34
2019-01-23T09:39:27.919Z,34.34
2019-01-23T09:40:27.876Z,34.34
2019-01-23T09:41:27.871Z,34.34
2019-01-23T09:42:27.856Z,34.44
2019-01-23T09:43:27.871Z,34.34
2019-01-23T09:44:27.831Z,34.34
2019-01-23T09:45:27.824Z,34.34
2019-01-23T09:46:27.821Z,34.24
2019-01-23T09:47:27.802Z,34.24
2019-01-23T09:48:27.827Z,34.24
2019-01-23T09:49:27.784Z,34.24
2019-01-23T09:50:27.773Z,34.34
2019-01-23T09:51:27.764Z,34.24
2019-01-23T09:52:27.751Z,34.34
2019-01-23T09:53:27.737Z,34.24
2019-01-23T09:54:27.759Z,34.24
2019-01-23T09:55:27.711Z,34.24
2019-01-23T09:56:27.703Z,34.14
2019-01-23T09:57:27.699Z,34.26
2019-01-23T09:58:27.691Z,34.14
2019-01-23T09:59:27.670Z,34.26
2019-01-23T10:00:27.702Z,34.26
2019-01-23T10:01:27.658Z,34.26
2019-01-23T10:02:27.642Z,34.26
2019-01-23T10:03:27.634Z,34.26
2019-01-23T10:04:27.617Z,34.36
2019-01-23T10:05:27.606Z,34.36
2019-01-23T10:06:27.873Z,34.46
2019-01-23T10:07:27.587Z,34.56
2019-01-23T10:08:27.577Z,34.56
2019-01-23T10:09:27.564Z,34.66
2019-01-23T10:10:27.557Z,34.66
2019-01-23T10:11:27.543Z,34.66
2019-01-23T10:12:27.567Z,34.76
2019-01-23T10:13:27.527Z,34.76
2019-01-23T10:14:27.508Z,34.86
2019-01-23T10:15:27.513Z,34.86
2019-01-23T10:16:27.491Z,34.86
2019-01-23T10:17:27.483Z,34.86
2019-01-23T10:18:27.511Z,34.96
2019-01-23T10:19:27.467Z,34.96
2019-01-23T10:20:27.446Z,35.06
2019-01-23T10:21:27.434Z,35.06
2019-01-23T10:22:27.426Z,35.06
2019-01-23T10:23:27.423Z,35.06
2019-01-23T10:24:27.438Z,35.16
2019-01-23T10:25:27.394Z,35.16
2019-01-23T10:26:27.383Z,35.16
2019-01-23T10:27:27.376Z,35.16
2019-01-23T10:28:27.364Z,35.16
2019-01-23T10:29:27.379Z,35.16
2019-01-23T10:30:27.348Z,35.16
2019-01-23T10:31:27.334Z,35.14
2019-01-23T10:32:27.357Z,35.14
2019-01-23T10:33:27.312Z,35.05
2019-01-23T10:34:27.300Z,35.05
2019-01-23T10:35:27.284Z,35.05
2019-01-23T10:36:27.275Z,35.05
2019-01-23T10:37:27.268Z,34.94
2019-01-23T10:38:27.293Z,34.94
2019-01-23T10:39:27.286Z,34.94
2019-01-23T10:40:27.236Z,34.94
2019-01-23T10:41:27.226Z,34.94
2019-01-23T10:42:27.214Z,34.83
2019-01-23T10:43:27.205Z,34.83
2019-01-23T10:44:27.222Z,34.83
2019-01-23T10:45:27.182Z,34.83
2019-01-23T10:46:27.175Z,34.83
2019-01-23T10:47:27.159Z,34.83
2019-01-23T10:48:27.146Z,34.83
2019-01-23T10:49:27.170Z,34.73
2019-01-23T10:50:27.126Z,34.73
2019-01-23T10:51:27.119Z,34.73
2019-01-23T10:52:27.109Z,34.73
2019-01-23T10:53:27.091Z,34.73
2019-01-23T10:54:27.085Z,34.73
2019-01-23T10:55:27.112Z,34.73
2019-01-23T10:56:27.065Z,34.73
2019-01-23T10:57:27.056Z,34.73
2019-01-23T10:58:27.044Z,34.73
2019-01-23T10:59:27.039Z,34.73
2019-01-23T11:00:27.017Z,34.73
2019-01-23T11:01:27.041Z,34.73
2019-01-23T11:02:27.001Z,34.73
2019-01-23T11:03:26.989Z,34.73
2019-01-23T11:04:26.980Z,34.73
2019-01-23T11:05:26.966Z,34.73
2019-01-23T11:06:26.960Z,34.71
2019-01-23T11:07:26.983Z,34.71
2019-01-23T11:08:26.936Z,34.71
2019-01-23T11:09:27.051Z,34.81
2019-01-23T11:10:26.912Z,34.71
2019-01-23T11:11:26.900Z,34.81
2019-01-23T11:12:26.973Z,34.81
2019-01-23T11:13:26.909Z,34.71
2019-01-23T11:14:26.868Z,34.81
2019-01-23T11:15:26.858Z,34.81
2019-01-23T11:16:26.850Z,34.81
2019-01-23T11:17:26.835Z,34.81
2019-01-23T11:18:27.053Z,34.81
2019-01-23T11:19:26.814Z,34.81
2019-01-23T11:20:26.810Z,34.81
2019-01-23T11:21:26.793Z,34.81
2019-01-23T11:22:26.785Z,34.81
2019-01-23T11:23:26.778Z,34.81
2019-01-23T11:24:26.796Z,34.81
2019-01-23T11:25:26.752Z,34.81
2019-01-23T11:26:26.742Z,34.81
2019-01-23T11:27:26.733Z,34.81
2019-01-23T11:28:26.715Z,34.81
2019-01-23T11:29:26.739Z,34.83
2019-01-23T11:30:26.748Z,34.93
2019-01-23T11:31:26.690Z,34.93
2019-01-23T11:32:26.679Z,34.93
2019-01-23T11:33:26.669Z,34.93
2019-01-23T11:34:26.652Z,34.93
2019-01-23T11:35:26.646Z,34.93
2019-01-23T11:36:26.886Z,34.93
2019-01-23T11:37:26.621Z,35.03
2019-01-23T11:38:26.615Z,35.03
2019-01-23T11:39:26.638Z,35.03
2019-01-23T11:40:26.592Z,35.03
2019-01-23T11:41:26.583Z,35.03
2019-01-23T11:42:26.601Z,35.03
2019-01-23T11:43:26.555Z,35.03
2019-01-23T11:44:26.549Z,35.03
2019-01-23T11:45:26.544Z,35.03
2019-01-23T11:46:26.524Z,35.03
2019-01-23T11:47:26.517Z,35.13
2019-01-23T11:48:26.540Z,35.13
2019-01-23T11:49:26.500Z,35.13
2019-01-23T11:50:26.483Z,35.13
2019-01-23T11:51:26.588Z,35.13
2019-01-23T11:52:26.460Z,35.13
2019-01-23T11:53:26.487Z,35.23
2019-01-23T11:54:26.476Z,35.23
2019-01-23T11:55:26.431Z,35.23
2019-01-23T11:56:26.419Z,35.23
2019-01-23T11:57:26.413Z,35.33
2019-01-23T11:58:26.402Z,35.33
2019-01-23T11:59:26.382Z,35.33
2019-01-23T12:00:26.733Z,35.33
2019-01-23T12:01:27.640Z,35.33
2019-01-23T12:02:30.703Z,35.23
2019-01-23T12:03:26.345Z,35.23
2019-01-23T12:04:26.329Z,35.23
2019-01-23T12:05:26.317Z,35.23
2019-01-23T12:06:26.539Z,35.23
2019-01-23T12:07:26.304Z,35.23
2019-01-23T12:08:26.292Z,35.23
2019-01-23T12:09:26.278Z,35.23
2019-01-23T12:10:26.272Z,35.23
2019-01-23T12:11:26.258Z,35.23
2019-01-23T12:12:26.283Z,35.23
2019-01-23T12:13:26.234Z,35.33
2019-01-23T12:14:26.221Z,35.23
2019-01-23T12:15:26.216Z,35.23
2019-01-23T12:16:26.200Z,35.33
2019-01-23T12:17:26.193Z,35.33
2019-01-23T12:18:26.216Z,35.33
2019-01-23T12:19:26.168Z,35.33
2019-01-23T12:20:26.159Z,35.33
2019-01-23T12:21:26.143Z,35.33
2019-01-23T12:22:26.172Z,35.31
2019-01-23T12:23:26.126Z,35.31
2019-01-23T12:24:26.113Z,35.11
2019-01-23T12:25:26.102Z,35.01
2019-01-23T12:26:26.090Z,34.81
2019-01-23T12:27:26.082Z,34.69
2019-01-23T12:28:26.109Z,34.50
2019-01-23T12:29:26.062Z,34.39
2019-01-23T12:30:26.055Z,34.30
2019-01-23T12:31:26.041Z,34.30
2019-01-23T12:32:26.024Z,34.18
2019-01-23T12:33:26.019Z,34.18
2019-01-23T12:34:26.053Z,34.08
2019-01-23T12:35:25.998Z,34.08
2019-01-23T12:36:25.991Z,33.98
2019-01-23T12:37:25.975Z,33.98
2019-01-23T12:38:25.958Z,33.96
2019-01-23T12:39:25.955Z,33.86
2019-01-23T12:40:26.161Z,33.86
2019-01-23T12:41:25.927Z,33.76
2019-01-23T12:42:25.922Z,33.76
2019-01-23T12:43:25.906Z,33.76
2019-01-23T12:44:25.899Z,33.76
2019-01-23T12:45:25.892Z,33.76
2019-01-23T12:46:25.908Z,33.76
2019-01-23T12:47:25.870Z,33.66
2019-01-23T12:48:25.849Z,33.66
2019-01-23T12:49:25.846Z,33.66
2019-01-23T12:50:25.833Z,33.66
2019-01-23T12:51:25.853Z,33.66
2019-01-23T12:52:25.838Z,33.66